Time;durP1;ratioP1;P1;durP2;ratioP2;P2;SDS_P1;SDS_P2;PMS_P1;PMS_P2;Temp;Humidity;BMP_temperature;BMP_pressure;BME280_temperature;BME280_humidity;BME280_pressure;Samples;Min_cycle;Max_cycle;Signal;HPM_P1;HPM_P2
2021/08/13 00:01:03;;;;;;;9.07;5.47;;;;;;;18.61;100.00;101012.84;5234314;28;20445;-77
2021/08/13 00:03:33;;;;;;;10.82;4.90;;;;;;;18.71;100.00;101022.78;5229312;28;20794;-78
2021/08/13 00:06:04;;;;;;;8.20;5.18;;;;;;;18.80;100.00;101015.13;5225348;28;20029;-77
2021/08/13 00:08:34;;;;;;;8.52;4.85;;;;;;;18.92;100.00;101014.34;5228090;28;20402;-77
2021/08/13 00:11:04;;;;;;;7.75;4.60;;;;;;;18.82;100.00;101013.25;5232815;28;20040;-78
2021/08/13 00:13:35;;;;;;;11.15;4.85;;;;;;;18.79;100.00;101016.06;5282507;22;20463;-79
2021/08/13 00:16:05;;;;;;;11.65;5.03;;;;;;;18.80;100.00;101009.81;5240657;28;20122;-79
2021/08/13 00:18:35;;;;;;;10.23;5.05;;;;;;;18.66;100.00;101006.34;5233971;28;20024;-79
2021/08/13 00:21:06;;;;;;;9.55;4.65;;;;;;;18.41;100.00;101008.78;5256694;28;20021;-79
2021/08/13 00:23:36;;;;;;;8.17;4.57;;;;;;;18.47;100.00;101005.75;5261578;28;20038;-79
2021/08/13 00:26:07;;;;;;;8.85;4.88;;;;;;;18.54;100.00;101012.38;5238341;28;20334;-79
2021/08/13 00:28:37;;;;;;;11.05;4.70;;;;;;;18.52;100.00;101018.72;5235171;28;20162;-79
2021/08/13 00:31:07;;;;;;;11.97;5.10;;;;;;;18.57;100.00;101021.94;5261842;28;20031;-79
2021/08/13 00:33:38;;;;;;;9.20;4.70;;;;;;;18.66;100.00;101027.53;5231717;28;20274;-79
2021/08/13 00:36:08;;;;;;;10.17;4.87;;;;;;;18.61;100.00;101028.75;5258073;28;20957;-79
2021/08/13 00:38:38;;;;;;;10.73;4.90;;;;;;;18.64;100.00;101029.41;5232072;28;20297;-79
2021/08/13 00:41:08;;;;;;;12.50;5.00;;;;;;;18.58;100.00;101034.22;5238912;28;20028;-79
2021/08/13 00:43:39;;;;;;;9.50;5.38;;;;;;;18.45;100.00;101028.84;5239450;28;20271;-79
2021/08/13 00:46:09;;;;;;;9.30;5.10;;;;;;;18.59;100.00;101033.28;5242693;28;20508;-79
2021/08/13 00:48:39;;;;;;;8.27;5.32;;;;;;;18.56;100.00;101030.81;5243513;28;20030;-79
2021/08/13 00:51:10;;;;;;;12.17;5.87;;;;;;;18.42;100.00;101031.66;5265603;28;20075;-79
2021/08/13 00:53:40;;;;;;;10.00;5.15;;;;;;;18.48;100.00;101035.75;5261506;28;20282;-79
2021/08/13 00:56:11;;;;;;;7.05;5.10;;;;;;;18.60;100.00;101034.97;5261434;28;20206;-79
2021/08/13 00:58:41;;;;;;;14.32;5.50;;;;;;;18.54;100.00;101038.00;5262208;28;20025;-79
2021/08/13 01:01:12;;;;;;;9.85;5.30;;;;;;;18.52;100.00;101047.84;5265428;28;20051;-79
2021/08/13 01:03:43;;;;;;;13.48;5.43;;;;;;;18.62;100.00;101046.34;5249544;28;20021;-79
2021/08/13 01:06:17;;;;;;;8.25;5.07;;;;;;;18.70;100.00;101041.44;5260665;28;20052;-79
2021/08/13 01:08:48;;;;;;;9.82;5.15;;;;;;;18.78;100.00;101053.25;5257106;28;20032;-79
2021/08/13 01:11:45;;;;;;;9.52;5.40;;;;;;;18.88;100.00;101051.72;5256532;28;20404;-79
2021/08/13 01:14:25;;;;;;;12.88;6.00;;;;;;;18.78;100.00;101053.25;5246096;28;20016;-79
2021/08/13 01:16:58;;;;;;;12.63;5.63;;;;;;;18.75;100.00;101059.59;5259542;28;20116;-79
2021/08/13 01:19:50;;;;;;;13.35;5.32;;;;;;;18.86;100.00;101062.44;5266116;28;20401;-79
2021/08/13 01:22:25;;;;;;;9.20;5.25;;;;;;;18.95;100.00;101061.84;5257229;28;20024;-79
2021/08/13 01:24:59;;;;;;;8.43;5.25;;;;;;;18.98;100.00;101063.47;5258515;28;20034;-79
2021/08/13 01:27:34;;;;;;;18.38;5.50;;;;;;;18.90;100.00;101069.25;5247088;28;20024;-79
2021/08/13 01:30:14;;;;;;;8.98;5.50;;;;;;;18.90;100.00;101069.25;5264808;28;20058;-79
2021/08/13 01:33:03;;;;;;;9.15;5.70;;;;;;;18.92;100.00;101062.03;5241755;28;20032;-79
2021/08/13 01:35:40;;;;;;;11.07;5.45;;;;;;;19.00;100.00;101065.09;5261105;28;20024;-79
2021/08/13 01:38:18;;;;;;;10.30;5.95;;;;;;;18.89;100.00;101062.25;5235579;28;20025;-79
2021/08/13 01:40:51;;;;;;;13.25;5.28;;;;;;;18.78;100.00;101059.41;5253652;28;20370;-79
2021/08/13 01:43:26;;;;;;;15.35;5.72;;;;;;;18.62;100.00;101051.63;5245217;28;20099;-79
2021/08/13 01:45:58;;;;;;;13.27;6.03;;;;;;;18.62;100.00;101046.34;5257555;28;20039;-80
2021/08/13 01:48:30;;;;;;;12.57;5.15;;;;;;;18.70;100.00;101049.38;5242684;28;20035;-79
2021/08/13 01:51:01;;;;;;;11.00;5.32;;;;;;;18.77;100.00;101048.91;5265164;28;20028;-79
2021/08/13 01:53:33;;;;;;;11.75;5.68;;;;;;;18.59;100.00;101042.09;5253224;28;20046;-79
2021/08/13 01:56:04;;;;;;;11.85;5.40;;;;;;;18.44;100.00;101042.16;5261990;28;20082;-79
2021/08/13 01:58:35;;;;;;;12.00;5.28;;;;;;;18.39;100.00;101057.47;5241776;28;20044;-79
2021/08/13 02:01:06;;;;;;;11.50;5.97;;;;;;;18.28;100.00;101051.94;5246989;28;20016;-79
2021/08/13 02:03:38;;;;;;;11.75;5.90;;;;;;;18.22;100.00;101063.75;5258266;28;20086;-79
2021/08/13 02:06:10;;;;;;;11.60;5.07;;;;;;;18.12;100.00;101057.28;5242491;28;20028;-79
2021/08/13 02:08:42;;;;;;;10.20;4.95;;;;;;;18.20;100.00;101054.19;5241628;28;20036;-79
2021/08/13 02:11:14;;;;;;;10.50;5.32;;;;;;;18.24;100.00;101071.56;5237894;28;20042;-79
2021/08/13 02:13:45;;;;;;;9.77;5.35;;;;;;;18.27;100.00;101064.34;5247416;28;20042;-79
2021/08/13 02:16:21;;;;;;;10.65;5.25;;;;;;;18.13;100.00;101063.41;5254559;28;20025;-79
2021/08/13 02:19:06;;;;;;;9.00;5.05;;;;;;;18.18;100.00;101058.72;5239444;28;20108;-79
2021/08/13 02:21:38;;;;;;;9.25;5.32;;;;;;;18.15;100.00;101064.19;5259666;28;20035;-79
2021/08/13 02:24:09;;;;;;;11.30;4.97;;;;;;;18.09;100.00;101057.47;5257408;28;20025;-79
2021/08/13 02:26:39;;;;;;;10.82;5.50;;;;;;;18.11;100.00;101054.72;5233772;28;20029;-79
2021/08/13 02:29:10;;;;;;;11.63;6.30;;;;;;;17.87;100.00;101062.31;5240975;28;20024;-79
2021/08/13 02:31:40;;;;;;;13.30;5.80;;;;;;;17.71;100.00;101065.91;5236751;28;20541;-79
2021/08/13 02:34:10;;;;;;;12.23;5.75;;;;;;;17.62;100.00;101066.44;5256495;28;20021;-79
2021/08/13 02:37:02;;;;;;;11.82;5.15;;;;;;;17.59;100.00;101078.03;5238323;28;20096;-79
2021/08/13 02:39:55;;;;;;;13.77;5.55;;;;;;;17.56;100.00;101067.63;5241722;28;20513;-79
2021/08/13 02:42:38;;;;;;;10.98;5.43;;;;;;;17.52;100.00;101062.59;5259933;28;20317;-79
2021/08/13 02:45:10;;;;;;;15.25;5.93;;;;;;;17.45;100.00;101058.59;5242166;28;20389;-79
2021/08/13 02:47:43;;;;;;;13.23;6.00;;;;;;;17.40;100.00;101056.19;5260889;28;20030;-79
2021/08/13 02:50:17;;;;;;;9.15;5.60;;;;;;;17.47;100.00;101046.16;5240814;28;20024;-79
2021/08/13 02:52:52;;;;;;;13.18;5.93;;;;;;;17.42;100.00;101038.47;5259030;28;20108;-79
2021/08/13 02:55:42;;;;;;;12.50;5.90;;;;;;;17.37;100.00;101045.81;5262611;28;20378;-79
2021/08/13 02:58:19;;;;;;;12.93;5.25;;;;;;;17.16;100.00;101054.03;5254614;28;20020;-79
2021/08/13 03:00:51;;;;;;;11.00;6.05;;;;;;;17.16;100.00;101052.22;5241299;28;20404;-79
2021/08/13 03:03:23;;;;;;;12.68;5.70;;;;;;;17.23;100.00;101052.75;5257370;28;20405;-79
2021/08/13 03:05:54;;;;;;;10.32;5.80;;;;;;;17.37;100.00;101050.22;5240500;28;20032;-79
2021/08/13 03:08:24;;;;;;;11.10;5.95;;;;;;;17.41;100.00;101051.75;5234360;28;20367;-80
2021/08/13 03:10:57;;;;;;;11.85;6.18;;;;;;;17.36;100.00;101053.81;5236122;28;20038;-79
2021/08/13 03:13:28;;;;;;;13.65;5.90;;;;;;;17.30;100.00;101046.19;5258037;28;20482;-79
2021/08/13 03:15:59;;;;;;;10.00;5.82;;;;;;;17.30;100.00;101060.25;5257820;28;20028;-79
2021/08/13 03:18:31;;;;;;;11.38;5.47;;;;;;;17.35;100.00;101057.38;5257350;28;20063;-79
2021/08/13 03:21:01;;;;;;;14.55;6.07;;;;;;;17.37;100.00;101056.38;5242996;28;20031;-79
2021/08/13 03:23:31;;;;;;;15.23;5.60;;;;;;;17.40;100.00;101052.69;5240052;28;20032;-79
2021/08/13 03:26:02;;;;;;;10.63;5.75;;;;;;;17.29;100.00;101052.41;5260408;28;20043;-79
2021/08/13 03:28:36;;;;;;;11.65;5.57;;;;;;;17.30;100.00;101062.06;5256634;28;20510;-79
2021/08/13 03:31:07;;;;;;;9.77;5.60;;;;;;;17.41;100.00;101063.19;5252951;28;20031;-79
2021/08/13 03:33:37;;;;;;;12.40;6.07;;;;;;;17.56;100.00;101064.13;5260013;28;20031;-80
2021/08/13 03:36:08;;;;;;;9.23;5.60;;;;;;;17.47;100.00;101068.13;5237928;28;20017;-79
2021/08/13 03:38:38;;;;;;;8.55;5.45;;;;;;;17.33;100.00;101057.44;5241836;28;20065;-79
2021/08/13 03:41:08;;;;;;;10.98;5.55;;;;;;;17.41;100.00;101071.13;5238481;28;20028;-79
2021/08/13 03:43:38;;;;;;;8.98;5.03;;;;;;;17.27;100.00;101059.56;5256941;28;20579;-79
2021/08/13 03:46:09;;;;;;;10.30;5.60;;;;;;;17.13;100.00;101067.41;5241947;28;20123;-79
2021/08/13 03:48:39;;;;;;;11.88;5.60;;;;;;;17.01;100.00;101063.63;5256484;28;20263;-79
2021/08/13 03:51:09;;;;;;;14.63;5.68;;;;;;;16.70;100.00;101057.44;5238139;28;20022;-79
2021/08/13 03:53:40;;;;;;;10.40;5.47;;;;;;;16.66;100.00;101066.44;5259395;28;20028;-79
2021/08/13 03:56:10;;;;;;;11.65;6.57;;;;;;;16.50;100.00;101062.91;5256058;28;20047;-79
2021/08/13 03:58:41;;;;;;;11.52;6.00;;;;;;;16.44;100.00;101055.31;5239146;28;20039;-79
2021/08/13 04:01:12;;;;;;;11.43;6.10;;;;;;;16.43;100.00;101052.75;5259670;28;20043;-79
2021/08/13 04:03:42;;;;;;;12.40;6.07;;;;;;;16.42;100.00;101061.59;5257149;28;20369;-79
2021/08/13 04:06:12;;;;;;;9.48;5.70;;;;;;;16.62;100.00;101058.75;5238060;28;20324;-79
2021/08/13 04:08:42;;;;;;;9.77;5.85;;;;;;;16.57;100.00;101056.34;5240946;28;20035;-79
2021/08/13 04:11:13;;;;;;;8.98;5.43;;;;;;;16.53;100.00;101059.25;5238900;28;20095;-79
2021/08/13 04:13:43;;;;;;;9.88;5.93;;;;;;;16.51;100.00;101064.59;5259146;28;20496;-79
2021/08/13 04:16:13;;;;;;;12.27;6.40;;;;;;;16.42;100.00;101072.16;5257449;28;20039;-79
2021/08/13 04:18:44;;;;;;;10.38;6.53;;;;;;;16.58;100.00;101070.41;5258768;28;20032;-79
2021/08/13 04:21:14;;;;;;;16.02;6.47;;;;;;;16.76;100.00;101070.28;5256078;28;20024;-79
2021/08/13 04:23:44;;;;;;;12.90;6.15;;;;;;;16.95;100.00;101060.47;5240488;28;20038;-80
2021/08/13 04:26:16;;;;;;;11.07;6.15;;;;;;;16.98;100.00;101062.94;5239173;28;20474;-79
2021/08/13 04:28:46;;;;;;;9.27;6.07;;;;;;;17.13;100.00;101067.41;5257972;28;20089;-79
2021/08/13 04:31:16;;;;;;;11.25;6.20;;;;;;;16.92;100.00;101072.06;5257298;28;20036;-80
2021/08/13 04:33:47;;;;;;;10.00;6.00;;;;;;;16.91;100.00;101066.84;5239746;28;20024;-80
2021/08/13 04:36:17;;;;;;;12.07;6.20;;;;;;;16.89;100.00;101071.34;5255691;28;20035;-79
2021/08/13 04:38:47;;;;;;;9.02;5.50;;;;;;;16.95;100.00;101068.41;5258797;28;20273;-79
2021/08/13 04:41:17;;;;;;;8.65;5.32;;;;;;;17.19;100.00;101060.00;5238663;28;20534;-79
2021/08/13 04:43:48;;;;;;;11.07;5.77;;;;;;;16.98;100.00;101058.50;5234582;28;20048;-79
2021/08/13 04:46:18;;;;;;;13.70;5.93;;;;;;;17.00;100.00;101069.84;5237856;28;20755;-80
2021/08/13 04:48:48;;;;;;;9.43;5.73;;;;;;;17.14;100.00;101074.41;5239892;28;20064;-80
2021/08/13 04:51:19;;;;;;;8.43;5.27;;;;;;;17.41;100.00;101068.47;5239628;28;20613;-79
2021/08/13 04:53:49;;;;;;;10.38;5.60;;;;;;;17.34;100.00;101072.38;5257182;28;20401;-79
2021/08/13 04:56:19;;;;;;;10.80;5.33;;;;;;;17.36;100.00;101075.81;5257797;28;20024;-79
2021/08/13 04:58:49;;;;;;;13.13;5.40;;;;;;;17.53;100.00;101069.56;5257618;28;20294;-79
2021/08/13 05:01:20;;;;;;;12.38;5.75;;;;;;;18.17;100.00;101051.72;5258015;28;20103;-80
2021/08/13 05:03:50;;;;;;;10.32;5.63;;;;;;;19.15;100.00;101045.59;5257893;28;20069;-80
2021/08/13 05:06:20;;;;;;;12.17;5.30;;;;;;;20.61;89.49;101057.06;5237650;28;20028;-80
2021/08/13 05:08:51;;;;;;;10.53;5.53;;;;;;;20.89;87.85;101066.50;5236901;28;20285;-80
2021/08/13 05:11:21;;;;;;;8.15;5.18;;;;;;;20.27;91.82;101066.44;5240258;28;20275;-79
2021/08/13 05:13:51;;;;;;;11.60;5.68;;;;;;;20.82;90.50;101061.69;5238220;28;20151;-80
2021/08/13 05:16:21;;;;;;;10.70;5.10;;;;;;;21.99;85.39;101050.47;5252901;28;20651;-80
2021/08/13 05:18:52;;;;;;;9.73;5.00;;;;;;;23.36;80.08;101047.53;5256884;28;20613;-80
2021/08/13 05:21:23;;;;;;;11.18;5.18;;;;;;;23.75;79.13;101046.13;5258107;28;20366;-80
2021/08/13 05:23:53;;;;;;;7.90;4.78;;;;;;;23.95;78.43;101048.00;5260294;28;20032;-80
2021/08/13 05:26:23;;;;;;;10.47;4.67;;;;;;;23.85;78.63;101052.44;5238426;28;20048;-79
2021/08/13 05:28:53;;;;;;;10.30;4.50;;;;;;;23.50;78.69;101052.63;5256322;28;20838;-80
2021/08/13 05:31:24;;;;;;;9.77;5.20;;;;;;;22.21;81.92;101058.53;5232105;28;20279;-79
2021/08/13 05:33:54;;;;;;;11.73;5.20;;;;;;;20.68;91.75;101065.31;5258203;28;20088;-79
2021/08/13 05:36:24;;;;;;;10.30;5.68;;;;;;;20.01;96.24;101077.06;5239573;28;20274;-79
2021/08/13 05:38:55;;;;;;;9.90;6.00;;;;;;;20.37;94.69;101069.34;5238383;28;20961;-79
2021/08/13 05:41:25;;;;;;;10.80;5.70;;;;;;;22.28;85.69;101055.28;5239165;28;20028;-79
2021/08/13 05:43:55;;;;;;;8.45;4.80;;;;;;;24.44;78.72;101049.13;5258640;28;20291;-79
2021/08/13 05:46:25;;;;;;;12.27;5.13;;;;;;;25.93;72.75;101044.66;5243723;28;20028;-80
2021/08/13 05:48:57;;;;;;;10.23;4.80;;;;;;;26.55;70.64;101047.75;5241855;28;20795;-80
2021/08/13 05:51:28;;;;;;;9.50;4.97;;;;;;;27.60;65.98;101041.78;5260349;28;20410;-80
2021/08/13 05:53:58;;;;;;;9.98;5.15;;;;;;;27.50;66.34;101053.59;5241118;28;20021;-80
2021/08/13 05:56:28;;;;;;;8.73;5.83;;;;;;;26.22;69.95;101045.50;5243845;28;20019;-79
2021/08/13 05:59:00;;;;;;;13.07;5.60;;;;;;;26.35;70.47;101048.75;5262739;28;20322;-79
2021/08/13 06:01:31;;;;;;;11.15;4.88;;;;;;;26.69;67.91;101047.28;5242588;28;20027;-79
2021/08/13 06:04:02;;;;;;;8.10;5.03;;;;;;;27.26;67.16;101050.63;5241073;28;20390;-80
2021/08/13 06:06:32;;;;;;;15.45;5.88;;;;;;;26.54;68.43;101064.81;5263707;28;20118;-79
2021/08/13 06:09:03;;;;;;;10.77;6.20;;;;;;;24.40;75.61;101074.38;5257462;28;20052;-79
2021/08/13 06:11:33;;;;;;;13.65;6.22;;;;;;;23.38;80.18;101076.78;5258370;28;20056;-79
2021/08/13 06:14:04;;;;;;;8.63;5.68;;;;;;;22.57;84.48;101069.91;5262600;28;20018;-80
2021/08/13 06:16:34;;;;;;;10.45;5.78;;;;;;;22.24;86.49;101071.63;5258945;28;20028;-80
2021/08/13 06:19:04;;;;;;;15.15;6.65;;;;;;;22.26;84.95;101067.03;5244944;28;20131;-79
2021/08/13 06:21:35;;;;;;;11.57;5.93;;;;;;;22.54;84.40;101058.63;5258423;28;20502;-80
2021/08/13 06:24:05;;;;;;;10.85;5.90;;;;;;;23.14;82.43;101052.91;5262429;28;20028;-77
2021/08/13 06:26:36;;;;;;;12.20;6.25;;;;;;;24.67;78.22;101050.69;5252372;28;20047;-79
2021/08/13 06:29:06;;;;;;;8.80;5.50;;;;;;;25.75;73.00;101046.28;5237856;28;20024;-78
2021/08/13 06:31:36;;;;;;;10.37;5.50;;;;;;;26.85;70.95;101041.16;5249998;28;20031;-78
2021/08/13 06:34:06;;;;;;;10.63;5.10;;;;;;;28.34;66.79;101045.09;5239782;28;20308;-80
2021/08/13 06:36:37;;;;;;;8.13;4.68;;;;;;;28.11;67.93;101060.00;5239288;28;20364;-81
2021/08/13 06:39:07;;;;;;;12.57;4.50;;;;;;;29.46;65.12;101057.38;5239809;28;20078;-81
2021/08/13 06:41:38;;;;;;;10.27;5.13;;;;;;;27.97;67.68;101061.34;5245198;28;20299;-81
2021/08/13 06:44:08;;;;;;;8.10;3.95;;;;;;;28.98;66.86;101062.53;5236948;28;20039;-79
2021/08/13 06:46:39;;;;;;;8.85;4.45;;;;;;;30.03;61.54;101067.31;5255457;28;20025;-80
2021/08/13 06:49:09;;;;;;;11.73;4.97;;;;;;;30.79;60.14;101057.91;5243799;28;20143;-81
2021/08/13 06:51:39;;;;;;;7.63;4.77;;;;;;;30.08;62.02;101059.59;5258849;28;20082;-81
2021/08/13 06:54:09;;;;;;;8.60;4.47;;;;;;;30.74;61.93;101055.69;5262224;28;20026;-81
2021/08/13 06:56:40;;;;;;;8.10;4.80;;;;;;;31.25;59.67;101053.41;5257777;28;20035;-79
2021/08/13 06:59:10;;;;;;;7.63;4.53;;;;;;;31.44;61.49;101055.66;5261451;28;20277;-80
2021/08/13 07:01:40;;;;;;;7.80;4.57;;;;;;;32.43;57.51;101057.41;5241186;28;20024;-79
2021/08/13 07:04:10;;;;;;;10.33;4.63;;;;;;;32.40;57.88;101057.75;5239352;28;20487;-80
2021/08/13 07:06:41;;;;;;;7.93;4.93;;;;;;;31.47;59.79;101060.72;5259959;28;20035;-81
2021/08/13 07:09:11;;;;;;;8.77;3.87;;;;;;;33.68;55.28;101050.91;5258012;28;20059;-80
2021/08/13 07:11:41;;;;;;;9.63;5.50;;;;;;;33.02;54.82;101054.63;5259865;28;20265;-81
2021/08/13 07:14:12;;;;;;;13.98;6.20;;;;;;;31.53;56.75;101046.47;5237512;28;20026;-80
2021/08/13 07:16:42;;;;;;;9.77;4.97;;;;;;;33.15;55.16;101048.53;5251762;28;20483;-81
2021/08/13 07:19:12;;;;;;;9.63;4.63;;;;;;;34.49;53.12;101037.78;5259806;28;20055;-80
2021/08/13 07:21:43;;;;;;;8.97;5.23;;;;;;;34.53;52.73;101042.59;5253632;28;20298;-78
2021/08/13 07:24:15;;;;;;;8.23;5.10;;;;;;;34.93;52.71;101039.16;5251750;28;20322;-80
2021/08/13 07:26:45;;;;;;;10.02;5.55;;;;;;;36.35;49.41;101038.03;5229331;28;20021;-80
2021/08/13 07:29:16;;;;;;;9.25;5.50;;;;;;;34.52;52.45;101042.81;5254430;28;20023;-80
2021/08/13 07:31:46;;;;;;;11.98;5.97;;;;;;;33.81;52.72;101043.78;5238326;28;20032;-81
2021/08/13 07:34:16;;;;;;;7.20;4.97;;;;;;;35.40;51.50;101031.03;5257492;28;20028;-81
2021/08/13 07:36:47;;;;;;;11.75;5.75;;;;;;;33.84;53.53;101034.44;5239511;28;20277;-80
2021/08/13 07:39:17;;;;;;;11.47;5.30;;;;;;;33.24;54.62;101050.13;5240991;28;20028;-79
2021/08/13 07:41:47;;;;;;;9.27;5.90;;;;;;;33.89;53.66;101048.25;5242248;28;20028;-82
2021/08/13 07:44:18;;;;;;;11.03;6.37;;;;;;;34.87;51.75;101045.38;5254459;28;20017;-80
2021/08/13 07:46:48;;;;;;;11.37;6.10;;;;;;;34.34;53.39;101064.19;5252354;28;20537;-80
2021/08/13 07:49:18;;;;;;;10.57;6.07;;;;;;;30.58;58.81;101065.69;5235252;28;20048;-81
2021/08/13 07:51:48;;;;;;;11.60;5.57;;;;;;;30.68;60.08;101071.75;5235146;28;20029;-78
2021/08/13 07:54:19;;;;;;;10.27;5.50;;;;;;;29.82;62.52;101075.88;5232916;28;20045;-82
2021/08/13 07:56:49;;;;;;;7.93;5.07;;;;;;;30.21;62.25;101065.31;5232092;28;20267;-78
2021/08/13 07:59:20;;;;;;;8.57;5.50;;;;;;;29.57;62.42;101075.97;5234649;28;20274;-80
2021/08/13 08:01:50;;;;;;;6.63;4.93;;;;;;;32.79;55.68;101061.16;5258580;28;20278;-81
2021/08/13 08:04:21;;;;;;;9.77;4.50;;;;;;;31.98;58.67;101064.66;5234132;28;20032;-79
2021/08/13 08:06:56;;;;;;;7.93;5.13;;;;;;;33.32;52.79;101063.59;5254385;28;20365;-79
2021/08/13 08:09:26;;;;;;;9.90;4.63;;;;;;;33.30;53.64;101068.38;5236726;28;20371;-81
2021/08/13 08:11:57;;;;;;;7.90;5.43;;;;;;;31.06;58.59;101067.25;5234875;28;20028;-82
2021/08/13 08:14:27;;;;;;;7.97;4.30;;;;;;;32.36;55.16;101061.03;5231804;28;20036;-80
2021/08/13 08:16:57;;;;;;;6.67;3.90;;;;;;;34.12;53.79;101060.59;5251827;28;20101;-82
2021/08/13 08:19:28;;;;;;;8.87;4.53;;;;;;;34.88;52.28;101054.38;5238371;28;20340;-82
2021/08/13 08:21:58;;;;;;;9.05;5.13;;;;;;;34.97;51.23;101060.28;5239608;28;20020;-80
2021/08/13 08:24:29;;;;;;;9.98;4.88;;;;;;;34.69;50.63;101063.25;5238529;28;20410;-81
2021/08/13 08:26:59;;;;;;;6.85;4.15;;;;;;;37.71;49.02;101051.41;5242107;28;20021;-82
2021/08/13 08:29:29;;;;;;;11.80;4.37;;;;;;;35.84;49.07;101069.53;5237854;28;20067;-80
2021/08/13 08:31:59;;;;;;;10.60;4.83;;;;;;;35.29;49.60;101075.16;5259119;28;20270;-79
2021/08/13 08:34:30;;;;;;;10.83;5.00;;;;;;;35.10;50.36;101078.59;5232042;28;20020;-80
2021/08/13 08:37:01;;;;;;;9.67;4.53;;;;;;;35.62;50.13;101081.63;5234670;28;20277;-82
2021/08/13 08:39:32;;;;;;;7.13;4.38;;;;;;;33.90;52.35;101077.06;5236004;28;20024;-80
2021/08/13 08:42:02;;;;;;;8.63;4.53;;;;;;;34.81;51.69;101086.09;5239126;28;20055;-82
2021/08/13 08:44:32;;;;;;;6.70;4.50;;;;;;;35.03;50.87;101083.97;5238047;28;20111;-82
2021/08/13 08:47:03;;;;;;;9.37;4.67;;;;;;;34.55;51.64;101077.72;5236527;28;20028;-82
2021/08/13 08:49:36;;;;;;;9.90;4.78;;;;;;;33.99;52.58;101078.63;5233008;28;20028;-80
2021/08/13 08:52:07;;;;;;;9.30;4.43;;;;;;;33.12;52.95;101076.84;5235402;28;20087;-78
2021/08/13 08:54:40;;;;;;;7.60;4.40;;;;;;;33.21;52.52;101080.34;5232430;28;20028;-81
2021/08/13 08:57:11;;;;;;;8.40;4.30;;;;;;;33.89;51.62;101083.53;5240273;28;20038;-78
2021/08/13 08:59:42;;;;;;;7.45;4.13;;;;;;;34.45;49.77;101071.78;5255295;28;20398;-80
2021/08/13 09:02:13;;;;;;;7.90;4.25;;;;;;;34.71;49.77;101083.72;5258525;28;20067;-81
2021/08/13 09:04:43;;;;;;;7.22;4.40;;;;;;;34.84;48.46;101083.00;5237892;28;20509;-81
2021/08/13 09:07:14;;;;;;;8.77;4.43;;;;;;;33.38;51.61;101085.38;5232996;28;20037;-80
2021/08/13 09:09:44;;;;;;;7.77;4.37;;;;;;;34.48;48.91;101069.53;5235105;28;20322;-80
2021/08/13 09:12:14;;;;;;;9.77;4.17;;;;;;;34.11;49.27;101066.22;5255497;28;20711;-80
2021/08/13 09:14:58;;;;;;;6.40;4.40;;;;;;;33.78;51.06;101065.88;5234908;28;20017;-81
2021/08/13 09:17:32;;;;;;;6.93;4.20;;;;;;;32.64;51.95;101071.09;5233731;28;20290;-80
2021/08/13 09:20:03;;;;;;;7.47;4.28;;;;;;;32.90;51.88;101066.09;5233946;28;20034;-79
2021/08/13 09:22:41;;;;;;;6.00;4.60;;;;;;;31.85;52.33;101069.84;5261357;28;20036;-80
2021/08/13 09:25:24;;;;;;;10.57;4.80;;;;;;;31.74;53.19;101064.81;5228707;28;20031;-78
2021/08/13 09:27:55;;;;;;;7.32;4.18;;;;;;;30.67;55.00;101067.34;5242200;28;20041;-79
2021/08/13 09:30:27;;;;;;;8.40;4.47;;;;;;;30.84;55.46;101061.78;5244859;28;20358;-80
2021/08/13 09:33:05;;;;;;;7.22;4.78;;;;;;;30.97;56.34;101065.59;5246503;28;20107;-80
2021/08/13 09:35:40;;;;;;;7.30;4.53;;;;;;;30.93;58.17;101061.56;5246434;28;20047;-79
2021/08/13 09:38:12;;;;;;;8.88;4.53;;;;;;;30.92;57.28;101062.59;5232817;28;20036;-77
2021/08/13 09:40:45;;;;;;;7.00;4.85;;;;;;;30.40;57.28;101060.44;5240088;28;20026;-79
2021/08/13 09:43:15;;;;;;;9.38;4.32;;;;;;;30.83;57.76;101058.22;5242777;28;20055;-79
2021/08/13 09:46:04;;;;;;;8.52;5.05;;;;;;;31.05;59.28;101062.03;5254019;28;20028;-78
2021/08/13 09:48:34;;;;;;;7.45;4.50;;;;;;;31.38;56.81;101058.22;5243042;28;20032;-78
2021/08/13 09:51:26;;;;;;;12.20;4.87;;;;;;;31.19;55.72;101051.38;5239509;28;20016;-79
2021/08/13 09:53:59;;;;;;;7.53;4.22;;;;;;;30.92;57.87;101051.78;5242285;28;20779;-78
2021/08/13 09:56:33;;;;;;;7.55;4.30;;;;;;;30.53;57.51;101062.59;5258462;28;20028;-79
2021/08/13 09:59:20;;;;;;;10.55;4.80;;;;;;;30.64;57.72;101046.09;5243198;28;20594;-79
2021/08/13 10:01:52;;;;;;;8.88;4.85;;;;;;;30.06;58.68;101053.53;5235504;28;20040;-80
2021/08/13 10:04:33;;;;;;;7.00;5.00;;;;;;;29.99;58.86;101068.63;5224133;28;20052;-79
2021/08/13 10:07:04;;;;;;;21.33;8.00;;;;;;;30.27;61.83;101060.09;5234076;28;20119;-79
2021/08/13 10:09:34;;;;;;;11.30;4.80;;;;;;;30.08;60.90;101056.91;5240480;28;20074;-80
2021/08/13 10:12:07;;;;;;;9.05;4.60;;;;;;;30.33;60.14;101045.94;5239123;28;20471;-80
2021/08/13 10:14:40;;;;;;;16.88;5.38;;;;;;;30.62;60.13;101042.75;5233961;28;20182;-78
2021/08/13 10:17:16;;;;;;;7.78;4.45;;;;;;;30.85;58.35;101039.16;5231554;28;20039;-80
2021/08/13 10:19:51;;;;;;;7.40;4.18;;;;;;;30.50;59.14;101038.66;5240350;28;20485;-79
2021/08/13 10:22:21;;;;;;;8.27;4.93;;;;;;;30.32;60.27;101041.56;5258317;28;20025;-80
2021/08/13 10:24:51;;;;;;;15.13;5.35;;;;;;;30.44;60.32;101040.19;5233652;28;20044;-79
2021/08/13 10:27:23;;;;;;;8.43;4.67;;;;;;;30.12;59.39;101032.09;5237427;28;20035;-79
2021/08/13 10:29:54;;;;;;;6.63;4.28;;;;;;;30.00;59.18;101029.88;5255506;28;20141;-79
2021/08/13 10:32:24;;;;;;;7.78;4.68;;;;;;;30.56;59.45;101027.19;5255036;28;20055;-78
2021/08/13 10:34:55;;;;;;;7.53;4.80;;;;;;;30.59;58.20;101032.28;5257171;28;20187;-80
2021/08/13 10:37:26;;;;;;;7.10;4.40;;;;;;;30.48;58.42;101029.91;5256310;28;20036;-80
2021/08/13 10:39:56;;;;;;;11.85;4.95;;;;;;;30.25;60.00;101037.84;5256568;28;20036;-79
2021/08/13 10:42:28;;;;;;;7.53;4.47;;;;;;;29.94;60.62;101041.34;5253922;28;20038;-79
2021/08/13 10:45:02;;;;;;;7.45;4.60;;;;;;;30.17;57.81;101037.00;5236230;28;20525;-78
2021/08/13 10:47:51;;;;;;;8.77;4.60;;;;;;;29.68;60.15;101029.81;5260179;28;20429;-80
2021/08/13 10:50:21;;;;;;;8.25;4.78;;;;;;;29.99;59.42;101028.19;5246503;28;20041;-79
2021/08/13 10:52:52;;;;;;;10.15;4.50;;;;;;;29.77;59.95;101028.84;5238802;28;20103;-80
2021/08/13 10:55:51;;;;;;;7.57;4.75;;;;;;;29.87;59.70;101022.28;5239529;28;20101;-80
2021/08/13 10:58:40;;;;;;;7.53;4.75;;;;;;;30.14;59.87;101016.63;5237908;28;20079;-79
2021/08/13 11:01:13;;;;;;;7.28;4.90;;;;;;;30.12;58.75;101013.22;5243772;28;20036;-79
2021/08/13 11:04:04;;;;;;;9.48;5.55;;;;;;;30.11;59.45;101013.41;5260156;28;20028;-79
2021/08/13 11:06:37;;;;;;;8.27;5.10;;;;;;;30.01;59.75;101018.06;5257777;28;20020;-78
2021/08/13 11:09:20;;;;;;;7.50;4.70;;;;;;;30.23;60.00;101015.59;5251073;28;20107;-77
2021/08/13 11:11:51;;;;;;;9.82;5.10;;;;;;;30.14;60.39;101018.44;5254146;28;20025;-80
2021/08/13 11:14:23;;;;;;;8.88;5.18;;;;;;;30.27;58.56;101019.63;5250167;28;20028;-77
2021/08/13 11:16:54;;;;;;;10.07;5.10;;;;;;;30.30;58.88;101015.75;5237886;28;20039;-79
2021/08/13 11:19:25;;;;;;;6.75;4.75;;;;;;;30.14;60.06;101016.63;5256284;28;20496;-79
2021/08/13 11:21:59;;;;;;;10.30;5.13;;;;;;;29.83;59.77;101014.69;5256021;28;20031;-79
2021/08/13 11:24:49;;;;;;;9.70;5.30;;;;;;;30.18;59.91;101011.69;5259338;28;20017;-80
2021/08/13 11:27:20;;;;;;;6.03;4.60;;;;;;;30.29;59.65;101014.06;5253348;28;20103;-78
2021/08/13 11:29:50;;;;;;;7.28;4.88;;;;;;;30.33;58.08;101010.88;5256632;28;20088;-80
2021/08/13 11:32:30;;;;;;;8.43;5.45;;;;;;;30.12;58.46;101009.69;5257792;28;20020;-80
2021/08/13 11:35:06;;;;;;;8.15;5.30;;;;;;;29.85;57.88;101012.66;5236696;28;20027;-78
2021/08/13 11:37:44;;;;;;;8.52;4.93;;;;;;;29.88;58.99;101015.06;5240253;28;20497;-77
2021/08/13 11:40:15;;;;;;;7.10;4.82;;;;;;;30.09;61.35;101002.75;5231915;28;20039;-79